Главная страница
METAR-TAF:

METAR-TAF

Аэропорты :

Багдад, Ирак

широта: 33-15-45N, долгота: 44-14-04E, высота над уровнем моря: 35 м

Текущие метеонаблюдения

Эта сводка был подготовлена 57 минут назад, в 11:00 UTC
Ветер 18 Узел от западно-северо-западный
Температура 40°C
Влажность 13%
Давление 1006 hPa
Видимость 10 км и более
Нет облачности ниже 1500 м, и нет кучево-дождевой облачности

METAR: ORBI 211100Z 29018KT CAVOK 40/06 Q1006 NOSIG

Время: 14:57 (11:57 UTC)

Прогноз

Эта сводка был подготовлена 1 час и 57 минут назад, в 10:00 UTC
Прогноз действительный с 21-го 12 UTC до 22-го 12 UTC
Ветер 20 Узел от западно-северо-западный
Видимость: 8000 м
Вероятность 40%
С 21-го 14 UTC до 21-го 18 UTC
Видимость: 4000 м
Низовая пыльная метель
изменения
С 21-го 19 UTC до 21-го 21 UTC
Ветер 12 Узел от западно-северо-западный
Видимость: 6000 м

TAF: ORBI 211000Z 2112/2212 30020KT 8000 NSC PROB40 2114/2118 4000 BLDU BECMG 2119/2121 30012KT 6000

Метеонаблюдения и прогнозы для более 4000 аэропортов (сводки METAR и TAF).

Имеющиеся станции представлены на карте желтыми и красными точками.

Чтобы увидеть название станции, наведите на нее мышь.

Затем щелкните, чтобы увидеть метеонаблюдения и метеопрогнозы.

Управление картой: чтобы увеличить масштаб, щелкните зеленые кнопки с черным крестиком; чтобы уменьшить масштаб, щелкните зеленую кнопку с тире; для просмотра соседних карт щелкайте зеленые стрелки.


METAR-TAF: